Madison, WI (53711)

8:12 AM CST on December 18, 2014 (GMT -0600)
Tower Hill | Change Station
CLOSE
Current Station
Personal Weather Station
Location: Fitchburg, WI
Elevation: 925 ft
Nearby Weather Stations

Elev 925 ft 43.01 °N, 89.43 °W | Updated 13 seconds ago

Overcast
Overcast
19.4 °F
Feels Like 19 °F
N
0.0
Wind Variable Wind from SSE

Today
High -- | Low -- °F
--% Chance of Precip.
Yesterday
High -- | Low -- °F
Precip. -- in
7:24 AM 4:24 PM
Waning Crescent, 14% visible
Pressure 30.28 in
Visibility 10.0 miles
Clouds Overcast 1600 ft
Windchill 19 °F
Dew Point 17 °F
Humidity 90%
Rainfall 0.00 in
Snow Depth Not available.
UV 0.0 out of 12
Pollen .10 out of 12
Air Quality Not available.
Flu Activity Not available.
METAR KC29 181350Z AUTO 28003KT 10SM OVC016 M06/M08 A3028 RMK AO1 T10601082

More Conditions Fewer Conditions

Pressure 30.28 in
Visibility 10.0 miles
Clouds Overcast 1600 ft
Windchill 19 °F
Dew Point 17 °F
Humidity 90%
Rainfall 0.00 in
Snow Depth Not available.
UV 0.0 out of 12
Pollen .10 out of 12
Air Quality Not available.
Flu Activity Not available.
METAR KC29 181350Z AUTO 28003KT 10SM OVC016 M06/M08 A3028 RMK AO1 T10601082

More Conditions Fewer Conditions

10-Day Weather Forecast

Almanac

Astronomy

Dec. 18, 2014 Rise Set
Actual Time
Civil Twilight
Nautical Twilight
Astronomical Twilight
Moon
Length of Visible Light
Length of Day
Tomorrow will be .
, % of the Moon is Illuminated

Today's Extremes

State Highs State Lows

Community

WunderPhotos

Upload Photos

1,778,930 photos uploaded!

WunderBlogs® & News

Nearby

Air Quality

  Air Quality AQ Index Pollutant
Not available.

Snow Depth

Station Depth Elevation

Earthquake Activity

City Distance Mag. Time & Date
Minimum magnitude displayed is 2.5.

Coastal Water Temperatures

Place Temperature

Nearby Weather Stations